Time;durP1;ratioP1;P1;durP2;ratioP2;P2;SDS_P1;SDS_P2;PMS_P1;PMS_P2;Temp;Humidity;BMP_temperature;BMP_pressure;BME280_temperature;BME280_humidity;BME280_pressure;Samples;Min_cycle;Max_cycle;Signal;HPM_P1;HPM_P2
2022/05/23 00:04:24;;;;;;;;;;;14.50;99.90;;;;;;12415847;28;20065;-39
2022/05/23 00:10:40;;;;;;;4.80;0.90;;;14.40;99.90;;;;;;12424569;28;19925;-41
2022/05/23 00:16:56;;;;;;;5.80;1.35;;;14.30;99.90;;;;;;12423305;28;20143;-39
2022/05/23 00:23:29;;;;;;;4.03;1.40;;;14.20;99.90;;;;;;12414280;28;20047;-41
2022/05/23 00:29:50;;;;;;;4.55;1.45;;;13.90;99.90;;;;;;12421521;28;20596;-40
2022/05/23 00:36:11;;;;;;;3.72;1.42;;;13.90;99.90;;;;;;12415082;28;20047;-39
2022/05/23 00:49:07;;;;;;;2.75;1.15;;;13.80;99.90;;;;;;12418641;28;20611;-39
2022/05/23 00:55:30;;;;;;;3.67;1.42;;;13.80;99.90;;;;;;12413934;28;20053;-39
2022/05/23 01:01:46;;;;;;;4.82;1.42;;;13.80;99.90;;;;;;12414083;28;20933;-39
2022/05/23 01:08:21;;;;;;;6.18;1.40;;;13.70;99.90;;;;;;12420088;28;20057;-40
2022/05/23 01:14:58;;;;;;;4.38;1.60;;;13.60;99.90;;;;;;12416072;28;20054;-39
2022/05/23 01:21:38;;;;;;;4.75;1.63;;;13.50;99.90;;;;;;12414760;28;20052;-41
2022/05/23 01:27:53;;;;;;;6.57;1.70;;;13.40;99.90;;;;;;12419730;28;20184;-41
2022/05/23 01:34:15;;;;;;;2.70;1.60;;;13.40;99.90;;;;;;12422053;28;20129;-39
2022/05/23 01:41:00;;;;;;;5.72;2.00;;;13.40;99.90;;;;;;12419347;28;20124;-39
2022/05/23 01:47:22;;;;;;;3.22;1.73;;;13.30;99.90;;;;;;12410652;28;20426;-39
2022/05/23 01:53:31;;;;;;;5.53;1.70;;;13.30;99.90;;;;;;12411817;28;20049;-40
2022/05/23 02:06:33;;;;;;;3.40;1.50;;;13.20;99.90;;;;;;12417830;28;20488;-41
2022/05/23 02:13:00;;;;;;;6.60;1.88;;;13.20;99.90;;;;;;12410037;28;20451;-39
2022/05/23 02:19:18;;;;;;;6.18;2.00;;;13.30;99.90;;;;;;12408284;28;20050;-39
2022/05/23 02:25:44;;;;;;;4.95;2.00;;;13.00;99.90;;;;;;12394532;28;20451;-40
2022/05/23 02:32:01;;;;;;;4.85;2.08;;;13.20;99.90;;;;;;12405492;28;20066;-39
2022/05/23 02:38:25;;;;;;;3.88;2.17;;;13.20;99.90;;;;;;12409687;28;20507;-39
2022/05/23 02:44:39;;;;;;;5.70;1.88;;;13.20;99.90;;;;;;12396172;28;20065;-41
2022/05/23 02:50:57;;;;;;;6.43;2.22;;;13.10;99.90;;;;;;12401461;28;20554;-39
2022/05/23 02:57:17;;;;;;;5.32;2.42;;;13.20;99.90;;;;;;12418820;28;20520;-39
2022/05/23 03:03:41;;;;;;;7.63;2.13;;;13.20;99.90;;;;;;12418493;28;20137;-40
2022/05/23 03:10:05;;;;;;;4.43;1.92;;;13.20;99.90;;;;;;12415010;28;20101;-41
2022/05/23 03:16:25;;;;;;;5.82;2.95;;;13.00;99.90;;;;;;12416917;28;20136;-40
2022/05/23 03:29:10;;;;;;;10.10;2.17;;;13.00;99.90;;;;;;12419193;28;20053;-39
2022/05/23 03:35:31;;;;;;;8.10;2.53;;;13.00;99.90;;;;;;12424403;28;20046;-40
2022/05/23 03:41:47;;;;;;;6.65;2.25;;;13.10;99.90;;;;;;12411140;28;20751;-40
2022/05/23 03:48:12;;;;;;;5.45;2.33;;;13.30;99.90;;;;;;12422033;28;20057;-41
2022/05/23 03:54:25;;;;;;;7.18;2.42;;;13.60;99.90;;;;;;12404263;28;20058;-41
2022/05/23 04:00:36;;;;;;;7.90;2.90;;;13.70;99.90;;;;;;12414607;28;20054;-40
2022/05/23 04:07:10;;;;;;;5.57;2.58;;;13.60;99.90;;;;;;12416627;28;20057;-41
2022/05/23 04:13:22;;;;;;;7.40;2.63;;;13.60;99.90;;;;;;12405925;28;20103;-41
2022/05/23 04:19:40;;;;;;;7.28;2.80;;;13.60;99.90;;;;;;12406344;28;20050;-41
2022/05/23 04:26:02;;;;;;;4.65;2.42;;;13.60;99.90;;;;;;12408222;28;20046;-39
2022/05/23 04:38:58;;;;;;;6.88;2.45;;;13.80;99.90;;;;;;12405622;28;20293;-40
2022/05/23 04:45:07;;;;;;;5.72;2.72;;;13.70;99.90;;;;;;12394812;28;20589;-41
2022/05/23 04:51:09;;;;;;;7.35;3.00;;;13.70;99.90;;;;;;12385814;28;20176;-44
2022/05/23 04:57:12;;;;;;;7.07;3.00;;;13.80;99.90;;;;;;12388126;28;20283;-41
2022/05/23 05:03:22;;;;;;;8.47;2.83;;;13.70;99.90;;;;;;12402580;28;20137;-40
2022/05/23 05:09:34;;;;;;;6.22;2.58;;;13.80;99.90;;;;;;12421154;28;20051;-40
2022/05/23 05:15:36;;;;;;;8.68;2.47;;;13.90;99.90;;;;;;12506430;28;20087;-41
2022/05/23 05:21:48;;;;;;;5.18;2.40;;;14.00;99.90;;;;;;12513290;28;20068;-39
2022/05/23 05:28:05;;;;;;;8.55;2.70;;;14.20;99.90;;;;;;12507045;28;20064;-39
2022/05/23 05:34:31;;;;;;;7.80;2.50;;;14.20;99.90;;;;;;12496170;28;20057;-41
2022/05/23 05:40:42;;;;;;;8.20;2.95;;;14.20;99.90;;;;;;12511353;28;20049;-40
2022/05/23 05:46:56;;;;;;;5.85;2.30;;;14.30;99.90;;;;;;12508193;28;20558;-39
2022/05/23 05:53:35;;;;;;;8.52;2.80;;;14.30;99.90;;;;;;12502365;28;20180;-39
2022/05/23 05:59:59;;;;;;;7.55;2.80;;;14.30;99.90;;;;;;12516723;28;20052;-39
2022/05/23 06:12:38;;;;;;;4.22;2.45;;;14.40;99.90;;;;;;12507808;28;20513;-39
2022/05/23 06:18:56;;;;;;;6.72;2.78;;;14.50;99.90;;;;;;12501725;28;20080;-39
2022/05/23 06:25:08;;;;;;;6.70;2.72;;;14.50;99.90;;;;;;12482087;28;20049;-41
2022/05/23 06:31:31;;;;;;;6.63;2.45;;;14.60;99.90;;;;;;12507179;28;20048;-41
2022/05/23 06:37:43;;;;;;;6.93;2.97;;;14.60;99.90;;;;;;12505816;28;20048;-41
2022/05/23 06:43:57;;;;;;;8.52;2.47;;;14.60;99.90;;;;;;12500273;28;20665;-42
2022/05/23 06:50:09;;;;;;;6.13;2.72;;;14.80;99.90;;;;;;12499234;28;20136;-39
2022/05/23 06:56:23;;;;;;;6.20;2.40;;;14.90;99.90;;;;;;12494494;28;20058;-39
2022/05/23 07:02:38;;;;;;;6.25;2.33;;;14.90;99.90;;;;;;12503965;28;20144;-41
2022/05/23 07:15:15;;;;;;;6.55;2.50;;;15.00;99.90;;;;;;12496534;28;20056;-42
2022/05/23 07:21:26;;;;;;;12.07;2.67;;;15.30;99.90;;;;;;12513981;28;20482;-39
2022/05/23 07:27:45;;;;;;;7.25;2.85;;;15.50;99.90;;;;;;12513078;28;20121;-40
2022/05/23 07:34:04;;;;;;;8.23;2.50;;;15.60;99.90;;;;;;12509255;28;20094;-39
2022/05/23 07:40:16;;;;;;;8.07;3.00;;;15.70;99.90;;;;;;12514579;28;20064;-40
2022/05/23 07:46:29;;;;;;;6.47;2.60;;;15.90;99.90;;;;;;12517878;28;20516;-41
2022/05/23 08:00:30;;;;;;;7.45;2.50;;;16.00;99.90;;;;;;12516933;28;20049;-39
2022/05/23 08:05:27;;;;;;;17.98;7.07;;;16.30;99.90;;;;;;12501753;28;20484;-40
2022/05/23 08:11:30;;;;;;;6.78;2.97;;;16.40;99.90;;;;;;12506111;28;20052;-39
2022/05/23 08:17:32;;;;;;;10.63;3.65;;;16.40;99.90;;;;;;12500240;28;20053;-39
2022/05/23 08:23:36;;;;;;;5.25;2.60;;;16.50;99.90;;;;;;12498040;28;20041;-42
2022/05/23 08:29:38;;;;;;;4.43;2.13;;;16.50;99.90;;;;;;12490163;28;20061;-41
2022/05/23 08:35:45;;;;;;;6.88;2.47;;;16.60;99.90;;;;;;12491868;28;20057;-41
2022/05/23 08:41:54;;;;;;;7.32;2.80;;;16.70;99.90;;;;;;12499628;28;20052;-41
2022/05/23 08:48:27;;;;;;;8.80;2.45;;;16.90;99.90;;;;;;12512518;28;20127;-40
2022/05/23 08:55:01;;;;;;;7.23;2.10;;;16.90;99.90;;;;;;12497102;28;20041;-40
2022/05/23 09:01:17;;;;;;;8.15;3.15;;;17.00;99.90;;;;;;12481418;28;20048;-40
2022/05/23 09:07:25;;;;;;;6.45;2.28;;;17.30;99.90;;;;;;12500947;28;20554;-41
2022/05/23 09:13:30;;;;;;;7.32;2.70;;;17.60;99.90;;;;;;12495406;28;20111;-41
2022/05/23 09:19:35;;;;;;;6.78;2.22;;;17.90;99.90;;;;;;12492893;28;20044;-41
2022/05/23 09:25:37;;;;;;;5.28;2.40;;;17.90;99.90;;;;;;12496657;28;20731;-39
2022/05/23 09:31:59;;;;;;;8.02;2.72;;;18.00;99.90;;;;;;12493539;28;20045;-40
2022/05/23 09:38:14;;;;;;;6.85;2.78;;;18.10;99.90;;;;;;12494226;28;20041;-41
2022/05/23 09:50:41;;;;;;;7.15;2.25;;;18.60;99.90;;;;;;12497003;28;20052;-40
2022/05/23 09:56:44;;;;;;;7.97;2.55;;;18.70;99.90;;;;;;12499940;28;20520;-40
2022/05/23 10:02:59;;;;;;;6.85;2.58;;;18.80;99.90;;;;;;12501659;28;20053;-42
2022/05/23 10:09:01;;;;;;;4.57;2.33;;;18.80;99.90;;;;;;12497248;28;20045;-41
2022/05/23 10:15:10;;;;;;;4.40;2.05;;;18.80;99.90;;;;;;12499517;28;20080;-40
2022/05/23 10:21:38;;;;;;;7.10;1.85;;;19.00;99.90;;;;;;12496807;28;20132;-41
2022/05/23 10:27:47;;;;;;;4.53;1.80;;;19.20;99.90;;;;;;12495300;28;20500;-43
2022/05/23 10:33:58;;;;;;;5.03;2.58;;;19.30;99.90;;;;;;12484560;28;20462;-39
2022/05/23 10:46:37;;;;;;;7.60;2.58;;;19.30;99.90;;;;;;12486217;28;20115;-41
2022/05/23 10:52:46;;;;;;;4.38;2.10;;;19.30;99.90;;;;;;12484687;28;20471;-42
2022/05/23 10:59:06;;;;;;;5.50;2.00;;;19.60;99.90;;;;;;12487634;28;20048;-41
2022/05/23 11:05:10;;;;;;;3.45;1.90;;;20.10;99.90;;;;;;12489926;28;20100;-41
2022/05/23 11:11:26;;;;;;;5.40;1.80;;;20.60;99.90;;;;;;12494745;28;20128;-42
2022/05/23 11:17:39;;;;;;;4.47;1.88;;;20.80;99.90;;;;;;12502496;28;20053;-40
2022/05/23 11:24:10;;;;;;;6.73;1.87;;;20.80;99.90;;;;;;12502178;28;20365;-40
2022/05/23 11:36:57;;;;;;;5.47;1.85;;;22.60;99.90;;;;;;12501720;28;20566;-40
2022/05/23 11:43:02;;;;;;;4.70;1.40;;;23.00;99.90;;;;;;12503838;28;20045;-40
2022/05/23 11:49:10;;;;;;;6.60;2.30;;;23.30;99.90;;;;;;12504765;28;20564;-40
2022/05/23 11:55:50;;;;;;;6.82;1.58;;;23.50;99.90;;;;;;12498532;28;20410;-41
2022/05/23 12:02:07;;;;;;;4.68;1.80;;;23.90;99.90;;;;;;12502241;28;20045;-38
2022/05/23 12:08:31;;;;;;;4.63;1.80;;;24.10;99.90;;;;;;12499400;28;20095;-42
2022/05/23 12:14:33;;;;;;;5.32;1.50;;;23.80;99.90;;;;;;12499205;28;20053;-38
2022/05/23 12:20:45;;;;;;;7.07;1.90;;;23.80;99.90;;;;;;12499968;28;20128;-39
2022/05/23 12:26:50;;;;;;;4.45;2.00;;;23.90;99.90;;;;;;12496905;28;20623;-41
2022/05/23 12:32:58;;;;;;;6.90;1.90;;;23.60;99.90;;;;;;12500196;28;20174;-42
2022/05/23 12:39:18;;;;;;;6.55;1.85;;;23.70;99.90;;;;;;12499690;28;20133;-41
2022/05/23 12:45:46;;;;;;;6.22;1.90;;;24.00;99.90;;;;;;12502868;28;20080;-39
2022/05/23 12:52:00;;;;;;;5.72;2.00;;;23.60;99.90;;;;;;12497167;28;20543;-39
2022/05/23 12:58:08;;;;;;;4.10;1.77;;;23.60;99.90;;;;;;12502216;28;20161;-38
2022/05/23 13:04:19;;;;;;;5.63;1.80;;;23.70;99.90;;;;;;12498926;28;20500;-42
2022/05/23 13:10:27;;;;;;;7.05;2.22;;;23.60;99.90;;;;;;12480700;28;20057;-40
2022/05/23 13:16:32;;;;;;;6.03;1.80;;;23.70;99.90;;;;;;12498347;28;20164;-39
2022/05/23 13:22:38;;;;;;;4.38;1.83;;;23.70;99.90;;;;;;12496774;28;20067;-41
2022/05/23 13:28:42;;;;;;;6.63;1.67;;;23.70;99.90;;;;;;12500383;28;20188;-40
2022/05/23 13:34:46;;;;;;;6.68;1.85;;;23.70;99.90;;;;;;12499795;28;20084;-39
2022/05/23 13:40:52;;;;;;;7.97;1.50;;;23.60;99.90;;;;;;12499203;28;20128;-38
2022/05/23 13:47:02;;;;;;;7.65;1.80;;;23.50;99.90;;;;;;12499477;28;20049;-40
2022/05/23 13:53:11;;;;;;;6.43;1.90;;;23.60;99.90;;;;;;12496157;28;20061;-41
2022/05/23 13:59:17;;;;;;;6.30;1.42;;;23.50;99.90;;;;;;12498566;28;21264;-38
2022/05/23 14:05:22;;;;;;;5.65;1.40;;;23.50;99.90;;;;;;12495513;28;20103;-38
2022/05/23 14:11:30;;;;;;;5.75;1.73;;;23.50;99.90;;;;;;12497387;28;20057;-38
2022/05/23 14:17:45;;;;;;;7.47;1.83;;;23.40;99.90;;;;;;12505096;28;20049;-40
2022/05/23 14:23:56;;;;;;;5.88;1.60;;;23.40;99.90;;;;;;12497457;28;20076;-39
2022/05/23 14:30:14;;;;;;;8.65;1.95;;;23.30;99.90;;;;;;12497024;28;20139;-39
2022/05/23 14:36:23;;;;;;;8.82;1.65;;;23.30;99.90;;;;;;12452026;28;20057;-39
2022/05/23 14:42:28;;;;;;;6.72;1.60;;;22.90;99.90;;;;;;12452103;28;20038;-40
2022/05/23 14:48:34;;;;;;;5.18;1.73;;;22.50;99.90;;;;;;12448262;28;20060;-39
2022/05/23 15:01:06;;;;;;;5.47;2.17;;;22.20;99.90;;;;;;12455499;28;20429;-38
2022/05/23 15:07:10;;;;;;;8.27;1.98;;;22.10;99.90;;;;;;12455072;28;20065;-40
2022/05/23 15:13:13;;;;;;;;;;;22.10;99.90;;;;;;12452714;28;20088;-40
2022/05/23 15:19:18;;;;;;;8.98;2.10;;;22.10;99.90;;;;;;12456637;28;19972;-40
2022/05/23 15:25:20;;;;;;;6.78;1.67;;;22.10;99.90;;;;;;12454483;28;20598;-39
2022/05/23 15:31:25;;;;;;;6.97;1.95;;;22.10;99.90;;;;;;12448751;28;20160;-38
2022/05/23 15:37:26;;;;;;;5.10;1.90;;;21.90;99.90;;;;;;12455212;28;20050;-37
2022/05/23 15:43:31;;;;;;;4.22;2.03;;;21.70;99.90;;;;;;12453167;28;20151;-37
2022/05/23 15:49:33;;;;;;;3.88;1.75;;;21.70;99.90;;;;;;12484267;28;20107;-41
2022/05/23 15:55:35;;;;;;;4.22;2.03;;;21.50;99.90;;;;;;12455502;28;20050;-40
2022/05/23 16:01:38;;;;;;;10.43;2.08;;;21.40;99.90;;;;;;12459420;28;20060;-39
2022/05/23 16:07:40;;;;;;;8.27;1.95;;;21.40;99.90;;;;;;12504717;28;20080;-38
2022/05/23 16:13:43;;;;;;;8.00;2.40;;;21.50;99.90;;;;;;12478127;28;20045;-41
2022/05/23 16:19:45;;;;;;;7.03;2.50;;;21.40;99.90;;;;;;12459333;28;20056;-39
2022/05/23 16:25:47;;;;;;;7.20;2.15;;;21.50;99.90;;;;;;12454605;28;20084;-40
2022/05/23 16:31:49;;;;;;;3.38;1.90;;;21.50;99.90;;;;;;12453560;28;20527;-39
2022/05/23 16:37:52;;;;;;;4.90;2.03;;;21.50;99.90;;;;;;12463522;28;20673;-39
2022/05/23 16:43:57;;;;;;;7.07;2.22;;;21.30;99.90;;;;;;12460259;28;20060;-40
2022/05/23 16:50:04;;;;;;;7.40;2.80;;;21.20;99.90;;;;;;12452762;28;20042;-40
2022/05/23 16:56:12;;;;;;;4.15;2.00;;;21.20;99.90;;;;;;12461336;28;20053;-41
2022/05/23 17:02:15;;;;;;;4.75;2.22;;;21.10;99.90;;;;;;12456393;28;20144;-38
2022/05/23 17:08:20;;;;;;;4.50;2.03;;;21.00;99.90;;;;;;12438416;28;20081;-41
2022/05/23 17:14:21;;;;;;;3.67;1.85;;;21.00;99.90;;;;;;12492264;28;20049;-39
2022/05/23 17:20:26;;;;;;;9.32;2.25;;;21.00;99.90;;;;;;12503701;28;20099;-40
2022/05/23 17:26:28;;;;;;;5.15;2.03;;;20.90;99.90;;;;;;12506591;28;20049;-39
2022/05/23 17:32:30;;;;;;;7.25;2.47;;;20.90;99.90;;;;;;12506417;28;20042;-41
2022/05/23 17:38:32;;;;;;;5.35;2.03;;;20.80;99.90;;;;;;12504928;28;20106;-38
2022/05/23 17:44:36;;;;;;;5.15;2.40;;;20.80;99.90;;;;;;12502696;28;20045;-40
2022/05/23 17:50:39;;;;;;;6.88;2.40;;;20.70;99.90;;;;;;12505400;28;20076;-39
2022/05/23 17:56:41;;;;;;;3.65;1.98;;;20.60;99.90;;;;;;12509101;28;20155;-40
2022/05/23 18:02:44;;;;;;;6.45;2.83;;;20.60;99.90;;;;;;12492758;28;20087;-41
2022/05/23 18:08:47;;;;;;;5.68;2.67;;;20.50;99.90;;;;;;12496363;28;20053;-42
2022/05/23 18:21:18;;;;;;;7.63;2.47;;;20.20;99.90;;;;;;12502258;28;20572;-39
2022/05/23 18:27:20;;;;;;;5.18;2.63;;;20.10;99.90;;;;;;12497833;28;20061;-39
2022/05/23 18:33:22;;;;;;;7.45;2.47;;;20.00;99.90;;;;;;12505440;28;20081;-38
2022/05/23 18:39:25;;;;;;;5.43;2.60;;;20.00;99.90;;;;;;12504482;28;20041;-41
2022/05/23 18:45:30;;;;;;;6.63;2.90;;;19.90;99.90;;;;;;12501503;28;20737;-38
2022/05/23 18:51:36;;;;;;;6.78;2.58;;;19.90;99.90;;;;;;12488612;28;20162;-40
2022/05/23 18:57:45;;;;;;;9.93;3.10;;;19.80;99.90;;;;;;12505051;28;20046;-41
2022/05/23 19:03:59;;;;;;;7.25;3.35;;;19.60;99.90;;;;;;12506041;28;20049;-39
2022/05/23 19:10:33;;;;;;;9.48;3.28;;;19.20;99.90;;;;;;12506302;28;20053;-39
2022/05/23 19:16:41;;;;;;;10.00;4.00;;;18.60;99.90;;;;;;12502144;28;20056;-41
2022/05/23 19:22:49;;;;;;;7.30;3.72;;;18.20;99.90;;;;;;12513279;28;20049;-40
2022/05/23 19:28:57;;;;;;;10.82;4.57;;;18.10;99.90;;;;;;12502487;28;20048;-38
2022/05/23 19:35:05;;;;;;;10.63;5.20;;;18.00;99.90;;;;;;12505486;28;20084;-39
2022/05/23 19:41:14;;;;;;;10.65;5.97;;;17.70;99.90;;;;;;12514606;28;20146;-40
2022/05/23 19:47:21;;;;;;;9.32;5.93;;;17.50;99.90;;;;;;12514865;28;20177;-38
2022/05/23 19:53:26;;;;;;;6.63;5.35;;;17.50;99.90;;;;;;12513623;28;20076;-39
2022/05/23 19:59:37;;;;;;;9.40;5.57;;;17.50;99.90;;;;;;12513168;28;20497;-38
2022/05/23 20:12:24;;;;;;;10.00;4.85;;;17.60;99.90;;;;;;12506332;28;20046;-41
2022/05/23 20:18:34;;;;;;;9.70;5.03;;;17.50;99.90;;;;;;12514020;28;20623;-39
2022/05/23 20:24:42;;;;;;;6.90;5.15;;;17.70;99.90;;;;;;12504425;28;20057;-39
2022/05/23 20:30:49;;;;;;;10.52;5.18;;;17.60;99.90;;;;;;12514805;28;20131;-41
2022/05/23 20:36:54;;;;;;;8.95;6.13;;;17.60;99.90;;;;;;12502403;28;20049;-40
2022/05/23 20:43:04;;;;;;;9.13;5.88;;;17.60;99.90;;;;;;12505263;28;20068;-39
2022/05/23 20:49:15;;;;;;;8.32;5.57;;;17.50;99.90;;;;;;12509284;28;20088;-38
2022/05/23 20:55:32;;;;;;;10.40;6.07;;;17.50;99.90;;;;;;12509298;28;20072;-39
2022/05/23 21:02:00;;;;;;;12.05;6.38;;;17.60;99.90;;;;;;12514328;28;20110;-39
2022/05/23 21:08:12;;;;;;;9.85;6.30;;;17.50;99.90;;;;;;12509031;28;20053;-38
2022/05/23 21:14:27;;;;;;;12.18;6.78;;;17.50;99.90;;;;;;12510079;28;20053;-38
2022/05/23 21:20:32;;;;;;;11.68;5.95;;;17.50;99.90;;;;;;12508559;28;20056;-40
2022/05/23 21:26:39;;;;;;;8.82;5.15;;;17.50;99.90;;;;;;12514526;28;20127;-41
2022/05/23 21:32:55;;;;;;;9.95;4.95;;;17.50;99.90;;;;;;12509752;28;20076;-40
2022/05/23 21:39:06;;;;;;;11.50;4.75;;;17.50;99.90;;;;;;12508415;28;20057;-40
2022/05/23 21:51:57;;;;;;;7.78;4.25;;;17.60;99.90;;;;;;12501928;28;20309;-40
2022/05/23 21:58:09;;;;;;;8.27;4.18;;;17.70;99.90;;;;;;12509237;28;20057;-41
2022/05/23 22:04:28;;;;;;;6.22;3.80;;;17.80;99.90;;;;;;12503273;28;20049;-39
2022/05/23 22:10:37;;;;;;;8.30;4.18;;;17.80;99.90;;;;;;12509839;28;20053;-39
2022/05/23 22:16:53;;;;;;;6.40;3.90;;;17.70;99.90;;;;;;12507405;28;20409;-39
2022/05/23 22:23:02;;;;;;;6.63;4.93;;;17.70;99.90;;;;;;12505501;28;20088;-38
2022/05/23 22:29:14;;;;;;;7.88;5.38;;;17.70;99.90;;;;;;12513364;28;20111;-39
2022/05/23 22:35:27;;;;;;;8.07;5.55;;;17.70;99.90;;;;;;12503551;28;20049;-41
2022/05/23 22:41:40;;;;;;;8.40;6.03;;;17.70;99.90;;;;;;12508363;28;20053;-40
2022/05/23 22:47:44;;;;;;;8.57;6.45;;;17.60;99.90;;;;;;12509814;28;20053;-39
2022/05/23 22:53:49;;;;;;;10.10;7.93;;;17.50;99.90;;;;;;12488437;28;20501;-39
2022/05/23 23:00:00;;;;;;;10.23;8.70;;;17.40;99.90;;;;;;12508834;28;20515;-41
2022/05/23 23:43:43;;;;;;;9.77;8.10;;;15.10;99.90;;;;;;12377888;23;20053;-81
2022/05/23 23:49:45;;;;;;;12.88;10.35;;;15.00;99.90;;;;;;12359782;28;20042;-80
2022/05/23 23:55:47;;;;;;;13.82;11.10;;;15.00;99.90;;;;;;12343874;28;20054;-82
